createdAt,value
2018-12-29T00:01:14.104Z,79.11
2018-12-29T00:03:44.623Z,78.97
2018-12-29T00:06:16.701Z,78.88
2018-12-29T00:08:48.927Z,79.13
2018-12-29T00:11:20.935Z,79.38
2018-12-29T00:13:52.933Z,79.35
2018-12-29T00:16:25.092Z,79.36
2018-12-29T00:18:57.116Z,79.28
2018-12-29T00:21:27.772Z,79.33
2018-12-29T00:23:59.941Z,79.36
2018-12-29T00:26:31.944Z,79.34
2018-12-29T00:29:03.943Z,79.09
2018-12-29T00:31:36.239Z,79.05
2018-12-29T00:34:07.052Z,79.11
2018-12-29T00:36:39.110Z,78.93
2018-12-29T00:39:11.280Z,78.71
2018-12-29T00:41:42.076Z,78.62
2018-12-29T00:44:19.649Z,78.22
2018-12-29T00:46:51.921Z,78.21
2018-12-29T00:49:23.945Z,77.81
2018-12-29T00:51:55.935Z,77.81
2018-12-29T00:54:28.113Z,77.57
2018-12-29T00:57:00.304Z,77.81
2018-12-29T00:59:31.311Z,77.91
2018-12-29T01:02:03.488Z,77.81
2018-12-29T01:04:36.939Z,77.81
2018-12-29T01:07:09.277Z,77.58
2018-12-29T01:09:41.272Z,77.82
2018-12-29T01:12:11.974Z,78.36
2018-12-29T01:14:45.460Z,78.36
2018-12-29T01:17:17.644Z,78.10
2018-12-29T01:19:49.699Z,77.90
2018-12-29T01:22:21.729Z,77.90
2018-12-29T01:24:53.921Z,77.97
2018-12-29T01:27:25.946Z,77.97
2018-12-29T01:29:58.667Z,77.57
2018-12-29T01:32:31.328Z,77.38
2018-12-29T01:35:03.308Z,77.52
2018-12-29T01:37:35.336Z,77.52
2018-12-29T01:40:08.071Z,77.67
2018-12-29T01:42:40.950Z,77.80
2018-12-29T01:45:17.329Z,77.73
2018-12-29T01:47:47.256Z,77.46
2018-12-29T01:50:17.875Z,77.01
2018-12-29T01:52:50.088Z,77.01
2018-12-29T01:55:22.102Z,77.31
2018-12-29T01:57:54.281Z,77.53
2018-12-29T02:00:24.978Z,77.54
2018-12-29T02:02:56.950Z,77.46
2018-12-29T02:05:29.476Z,77.89
2018-12-29T02:08:01.660Z,78.06
2018-12-29T02:10:33.751Z,78.06
2018-12-29T02:13:05.751Z,77.74
2018-12-29T02:15:37.798Z,77.79
2018-12-29T02:19:19.747Z,77.88
2018-12-29T02:21:51.764Z,77.88
2018-12-29T02:24:23.952Z,77.79
2018-12-29T02:26:57.682Z,78.25
2018-12-29T02:29:29.794Z,78.34
2018-12-29T02:32:01.912Z,78.41
2018-12-29T02:34:33.952Z,78.57
2018-12-29T02:37:06.127Z,78.71
2018-12-29T02:39:39.755Z,78.89
2018-12-29T02:42:11.943Z,78.84
2018-12-29T02:44:44.074Z,78.65
2018-12-29T02:47:16.140Z,78.66
2018-12-29T02:49:46.784Z,79.22
2018-12-29T02:52:18.948Z,79.06
2018-12-29T02:54:51.113Z,78.99
2018-12-29T02:57:22.614Z,79.22
2018-12-29T02:59:55.330Z,79.13
2018-12-29T03:02:27.637Z,79.18
2018-12-29T03:04:59.873Z,79.18
2018-12-29T03:07:32.127Z,79.04
2018-12-29T03:10:02.803Z,78.90
2018-12-29T03:12:34.891Z,78.77
2018-12-29T03:15:07.359Z,78.96
2018-12-29T03:17:37.999Z,78.88
2018-12-29T03:20:09.959Z,78.88
2018-12-29T03:22:41.959Z,79.23
2018-12-29T03:25:13.969Z,79.46
2018-12-29T03:27:46.104Z,79.52
2018-12-29T03:30:19.740Z,79.50
2018-12-29T03:32:51.761Z,79.61
2018-12-29T03:35:23.963Z,79.63
2018-12-29T03:37:55.968Z,79.36
2018-12-29T03:40:28.667Z,79.56
2018-12-29T03:43:00.685Z,79.78
2018-12-29T03:45:32.733Z,79.77
2018-12-29T03:48:04.742Z,79.95
2018-12-29T03:50:36.950Z,79.72
2018-12-29T03:53:09.337Z,79.78
2018-12-29T03:55:41.282Z,80.05
2018-12-29T03:58:12.023Z,79.80
2018-12-29T04:00:44.288Z,79.61
2018-12-29T04:03:15.367Z,79.34
2018-12-29T04:05:47.682Z,78.40
2018-12-29T04:08:19.769Z,78.40
2018-12-29T04:10:51.895Z,78.26
2018-12-29T04:13:23.990Z,77.89
2018-12-29T04:15:58.201Z,77.34
2018-12-29T04:18:29.781Z,77.34
2018-12-29T04:21:01.893Z,77.21
2018-12-29T04:23:33.949Z,77.43
2018-12-29T04:26:05.954Z,77.33
2018-12-29T04:28:37.945Z,77.22
2018-12-29T04:31:09.953Z,77.20
2018-12-29T04:33:41.951Z,77.07
2018-12-29T04:36:14.116Z,76.82
2018-12-29T04:38:44.871Z,76.62
2018-12-29T04:41:16.947Z,76.49
2018-12-29T04:43:48.959Z,76.35
2018-12-29T04:46:20.955Z,76.52
2018-12-29T04:48:53.092Z,76.80
2018-12-29T04:51:25.292Z,76.70
2018-12-29T04:53:55.870Z,76.59
2018-12-29T04:56:27.886Z,76.59
2018-12-29T04:58:59.952Z,76.60
2018-12-29T05:01:31.937Z,76.56
2018-12-29T05:04:03.962Z,76.40
2018-12-29T05:06:35.962Z,76.46
2018-12-29T05:09:09.798Z,76.73
2018-12-29T05:11:41.787Z,77.22
2018-12-29T05:14:13.957Z,77.42
2018-12-29T05:16:45.957Z,77.29
2018-12-29T05:19:17.935Z,77.28
2018-12-29T05:21:50.074Z,77.60
2018-12-29T05:24:22.119Z,77.88
2018-12-29T05:26:52.700Z,77.88
2018-12-29T05:29:24.775Z,77.86
2018-12-29T05:31:56.934Z,78.05
2018-12-29T05:34:29.062Z,78.13
2018-12-29T05:37:01.088Z,78.13
2018-12-29T05:39:33.287Z,78.24
2018-12-29T05:42:03.874Z,78.43
2018-12-29T05:44:35.954Z,78.44
2018-12-29T05:47:08.202Z,78.87
2018-12-29T05:49:40.292Z,79.14
2018-12-29T05:52:10.904Z,78.96
2018-12-29T05:54:43.292Z,79.15
2018-12-29T05:57:13.874Z,79.25
2018-12-29T05:59:45.950Z,79.45
2018-12-29T06:02:18.284Z,79.56
2018-12-29T06:04:49.135Z,79.35
2018-12-29T06:07:21.288Z,79.37
2018-12-29T06:09:51.732Z,79.29
2018-12-29T06:12:23.951Z,79.52
2018-12-29T06:14:55.957Z,79.39
2018-12-29T06:17:27.956Z,79.12
2018-12-29T06:19:59.941Z,78.76
2018-12-29T06:22:31.961Z,78.86
2018-12-29T06:25:03.955Z,78.99
2018-12-29T06:27:35.959Z,78.50
2018-12-29T06:30:08.150Z,78.55
2018-12-29T06:32:40.117Z,78.50
2018-12-29T06:35:10.707Z,78.56
2018-12-29T06:37:42.721Z,78.39
2018-12-29T06:40:14.756Z,78.52
2018-12-29T06:42:46.851Z,78.66
2018-12-29T06:45:18.871Z,78.54
2018-12-29T06:47:50.948Z,78.40
2018-12-29T06:50:22.955Z,78.40
2018-12-29T06:52:55.118Z,78.54
2018-12-29T06:55:25.734Z,78.55
2018-12-29T06:57:57.890Z,78.52
2018-12-29T07:00:29.954Z,78.40
2018-12-29T07:03:01.954Z,78.36
2018-12-29T07:05:33.952Z,78.20
2018-12-29T07:08:05.939Z,78.42
2018-12-29T07:10:37.950Z,78.29
2018-12-29T07:13:09.950Z,78.64
2018-12-29T07:15:41.955Z,78.18
2018-12-29T07:18:13.942Z,78.43
2018-12-29T07:20:45.955Z,78.53
2018-12-29T07:23:18.069Z,78.68
2018-12-29T07:25:50.114Z,78.64
2018-12-29T07:28:22.143Z,78.89
2018-12-29T07:30:52.843Z,78.81
2018-12-29T07:33:25.153Z,78.93
2018-12-29T07:35:55.722Z,79.02
2018-12-29T07:38:27.755Z,78.88
2018-12-29T07:40:59.947Z,79.01
2018-12-29T07:43:31.955Z,78.60
2018-12-29T07:46:03.955Z,78.52
2018-12-29T07:48:35.964Z,78.52
2018-12-29T07:51:08.090Z,78.50
2018-12-29T07:53:40.091Z,78.50
2018-12-29T07:56:12.297Z,78.59
2018-12-29T07:58:42.867Z,78.50
2018-12-29T08:01:14.950Z,78.50
2018-12-29T08:03:46.960Z,78.72
2018-12-29T08:06:18.963Z,78.67
2018-12-29T08:08:50.948Z,78.83
2018-12-29T08:11:23.106Z,78.80
2018-12-29T08:13:53.740Z,78.80
2018-12-29T08:16:25.962Z,78.81
2018-12-29T08:18:58.084Z,79.24
2018-12-29T08:21:30.275Z,79.38
2018-12-29T08:24:00.819Z,79.51
2018-12-29T08:26:32.949Z,79.41
2018-12-29T08:29:04.953Z,79.20
2018-12-29T08:31:36.948Z,79.39
2018-12-29T08:34:09.106Z,79.73
2018-12-29T08:36:41.276Z,79.45
2018-12-29T08:39:11.794Z,79.65
2018-12-29T08:41:43.943Z,79.39
2018-12-29T08:44:16.116Z,79.12
2018-12-29T08:46:48.117Z,79.43
2018-12-29T08:49:20.266Z,79.20
2018-12-29T08:51:50.677Z,78.91
2018-12-29T08:54:23.070Z,79.28
2018-12-29T08:56:55.118Z,79.41
2018-12-29T08:59:25.686Z,79.54
2018-12-29T09:01:57.837Z,79.12
2018-12-29T09:04:29.876Z,79.27
2018-12-29T09:07:01.902Z,79.35
2018-12-29T09:09:33.982Z,79.51
2018-12-29T09:12:06.124Z,79.24
2018-12-29T09:14:38.279Z,78.94
2018-12-29T09:17:12.311Z,78.99
2018-12-29T09:19:42.623Z,78.92
2018-12-29T09:22:14.713Z,78.92
2018-12-29T09:24:46.788Z,79.51
2018-12-29T09:27:18.859Z,79.33
2018-12-29T09:29:50.948Z,79.40
2018-12-29T09:32:23.066Z,79.47
2018-12-29T09:34:55.091Z,79.53
2018-12-29T09:37:27.269Z,79.41
2018-12-29T09:39:57.707Z,78.86
2018-12-29T09:42:29.927Z,78.86
2018-12-29T09:45:02.023Z,78.79
2018-12-29T09:47:34.110Z,78.69
2018-12-29T09:50:06.671Z,78.40
2018-12-29T09:52:39.315Z,78.62
2018-12-29T09:55:11.296Z,78.83
2018-12-29T09:57:41.870Z,78.93
2018-12-29T10:00:13.954Z,78.58
2018-12-29T10:02:46.227Z,78.58
2018-12-29T10:05:18.370Z,77.99
2018-12-29T10:07:50.664Z,77.71
2018-12-29T10:10:22.946Z,77.73
2018-12-29T10:12:54.953Z,77.67
2018-12-29T10:15:27.266Z,77.80
2018-12-29T10:17:57.804Z,77.93
2018-12-29T10:20:29.964Z,77.93
2018-12-29T10:23:02.167Z,77.74
2018-12-29T10:25:34.279Z,77.95
2018-12-29T10:28:04.804Z,77.61
2018-12-29T10:30:37.011Z,77.61
2018-12-29T10:33:09.120Z,77.84
2018-12-29T10:35:39.801Z,77.81
2018-12-29T10:38:11.962Z,78.00
2018-12-29T10:40:44.113Z,78.00
2018-12-29T10:43:14.799Z,77.60
2018-12-29T10:45:46.954Z,77.43
2018-12-29T10:48:19.090Z,77.46
2018-12-29T10:50:51.137Z,77.70
2018-12-29T10:53:23.281Z,77.68
2018-12-29T10:55:54.279Z,77.75
2018-12-29T10:58:26.277Z,77.75
2018-12-29T11:00:56.861Z,77.73
2018-12-29T11:03:28.924Z,77.41
2018-12-29T11:06:00.973Z,77.75
2018-12-29T11:08:33.274Z,77.63
2018-12-29T11:11:04.012Z,77.43
2018-12-29T11:13:36.273Z,77.17
2018-12-29T11:16:07.712Z,77.67
2018-12-29T11:18:39.784Z,77.77
2018-12-29T11:21:11.830Z,77.64
2018-12-29T11:23:43.916Z,77.64
2018-12-29T11:26:15.935Z,77.58
2018-12-29T11:28:47.950Z,78.11
2018-12-29T11:31:20.134Z,77.96
2018-12-29T11:33:52.281Z,78.02
2018-12-29T11:36:22.857Z,77.84
2018-12-29T11:38:54.942Z,78.58
2018-12-29T11:41:26.941Z,78.58
2018-12-29T11:43:58.933Z,78.65
2018-12-29T11:46:30.937Z,78.65
2018-12-29T11:49:02.933Z,78.79
2018-12-29T11:51:35.193Z,79.24
2018-12-29T11:54:07.261Z,79.17
2018-12-29T11:56:38.101Z,78.30
2018-12-29T11:59:10.595Z,77.78
2018-12-29T12:01:42.774Z,77.78
2018-12-29T12:04:14.935Z,77.90
2018-12-29T12:06:46.936Z,78.03
2018-12-29T12:09:17.859Z,78.26
2018-12-29T12:11:50.053Z,77.76
2018-12-29T12:14:22.162Z,78.14
2018-12-29T12:16:54.109Z,78.19
2018-12-29T12:19:26.500Z,77.75
2018-12-29T12:21:58.674Z,77.75
2018-12-29T12:24:31.012Z,77.72
2018-12-29T12:27:03.114Z,77.56
2018-12-29T12:29:35.090Z,77.55
2018-12-29T12:32:05.806Z,77.39
2018-12-29T12:34:37.874Z,77.25
2018-12-29T12:37:09.915Z,77.29
2018-12-29T12:39:44.940Z,77.31
2018-12-29T12:42:17.100Z,77.22
2018-12-29T12:44:47.647Z,77.21
2018-12-29T12:47:19.942Z,77.02
2018-12-29T12:49:52.291Z,76.69
2018-12-29T12:52:23.335Z,76.52
2018-12-29T12:54:55.674Z,76.42
2018-12-29T12:57:27.865Z,76.09
2018-12-29T12:59:58.695Z,76.09
2018-12-29T13:02:31.119Z,76.17
2018-12-29T13:05:01.857Z,75.52
2018-12-29T13:07:34.094Z,75.52
2018-12-29T13:10:06.754Z,75.09
2018-12-29T13:12:39.087Z,74.58
2018-12-29T13:15:09.687Z,73.98
2018-12-29T13:17:41.769Z,74.25
2018-12-29T13:20:13.956Z,74.29
2018-12-29T13:22:44.784Z,74.95
2018-12-29T13:25:17.268Z,75.27
2018-12-29T13:27:49.076Z,75.60
2018-12-29T13:30:21.225Z,75.72
2018-12-29T13:32:53.685Z,76.02
2018-12-29T13:35:25.870Z,76.02
2018-12-29T13:37:57.943Z,75.74
2018-12-29T13:40:30.119Z,75.64
2018-12-29T13:43:02.305Z,75.11
2018-12-29T13:45:34.273Z,75.11
2018-12-29T13:48:06.303Z,74.99
2018-12-29T13:50:39.376Z,75.23
2018-12-29T13:53:11.765Z,75.05
2018-12-29T13:55:43.939Z,74.66
2018-12-29T13:58:16.052Z,74.54
2018-12-29T14:00:48.264Z,74.54
2018-12-29T14:03:18.853Z,74.27
2018-12-29T14:05:50.916Z,74.05
2018-12-29T14:08:23.265Z,74.37
2018-12-29T14:10:55.539Z,74.37
2018-12-29T14:13:27.665Z,74.57
2018-12-29T14:15:59.937Z,74.59
2018-12-29T14:18:32.175Z,74.72
2018-12-29T14:21:02.640Z,74.77
2018-12-29T14:23:35.277Z,74.57
2018-12-29T14:26:05.845Z,74.82
2018-12-29T14:28:37.945Z,74.79
2018-12-29T14:31:10.241Z,75.08
2018-12-29T14:33:40.868Z,75.12
2018-12-29T14:36:12.940Z,75.10
2018-12-29T14:38:45.100Z,74.88
2018-12-29T14:41:17.289Z,74.66
2018-12-29T14:43:47.993Z,74.64
2018-12-29T14:46:20.266Z,74.79
2018-12-29T14:48:50.854Z,74.85
2018-12-29T14:51:22.929Z,74.75
2018-12-29T14:53:54.938Z,74.63
2018-12-29T14:56:27.272Z,74.74
2018-12-29T14:59:00.096Z,74.88
2018-12-29T15:01:30.907Z,74.96
2018-12-29T15:04:03.098Z,74.97
2018-12-29T15:06:33.783Z,74.79
2018-12-29T15:09:07.973Z,74.22
2018-12-29T15:11:40.260Z,74.22
2018-12-29T15:14:12.333Z,74.07
2018-12-29T15:16:44.679Z,73.64
2018-12-29T15:19:16.940Z,73.64
2018-12-29T15:21:49.089Z,73.33
2018-12-29T15:24:19.674Z,73.56
2018-12-29T15:26:51.916Z,73.68
2018-12-29T15:29:22.998Z,73.24
2018-12-29T15:31:54.945Z,73.11
2018-12-29T15:34:27.264Z,73.11
2018-12-29T15:37:01.012Z,73.14
2018-12-29T15:39:34.153Z,72.72
2018-12-29T15:42:05.273Z,72.72
2018-12-29T15:44:36.392Z,72.89
2018-12-29T15:47:09.281Z,72.60
2018-12-29T15:49:44.102Z,72.42
2018-12-29T15:52:16.285Z,72.53
2018-12-29T15:54:48.775Z,72.85
2018-12-29T15:57:21.138Z,73.01
2018-12-29T15:59:54.164Z,73.10
2018-12-29T16:02:26.279Z,73.10
2018-12-29T16:04:58.638Z,72.53
2018-12-29T16:07:30.894Z,72.53
2018-12-29T16:10:03.099Z,72.03
2018-12-29T16:12:38.557Z,72.07
2018-12-29T16:15:11.071Z,72.29
2018-12-29T16:17:43.285Z,72.11
2018-12-29T16:20:15.310Z,71.83
2018-12-29T16:22:47.791Z,71.71
2018-12-29T16:25:19.955Z,71.73
2018-12-29T16:27:52.181Z,71.65
2018-12-29T16:30:22.856Z,71.65
2018-12-29T16:32:53.991Z,71.79
2018-12-29T16:35:26.276Z,71.61
2018-12-29T16:37:58.862Z,71.43
2018-12-29T16:40:30.946Z,71.61
2018-12-29T16:43:03.140Z,71.87
2018-12-29T16:45:35.267Z,71.62
2018-12-29T16:48:07.682Z,71.32
2018-12-29T16:50:39.930Z,71.28
2018-12-29T16:53:12.129Z,71.47
2018-12-29T16:55:43.267Z,71.76
2018-12-29T16:58:15.326Z,71.82
2018-12-29T17:00:47.307Z,71.82
2018-12-29T17:03:19.653Z,71.73
2018-12-29T17:05:51.749Z,71.29
2018-12-29T17:08:23.945Z,71.52
2018-12-29T17:10:54.868Z,71.46
2018-12-29T17:13:27.282Z,71.41
2018-12-29T17:15:58.071Z,71.50
2018-12-29T17:18:30.136Z,71.67
2018-12-29T17:21:02.701Z,71.93
2018-12-29T17:23:34.942Z,71.93
2018-12-29T17:26:07.116Z,71.58
2018-12-29T17:28:39.691Z,71.99
2018-12-29T17:31:11.951Z,71.99
2018-12-29T17:33:44.281Z,71.79
2018-12-29T17:36:15.066Z,71.66
2018-12-29T17:38:47.282Z,71.77
2018-12-29T17:41:19.313Z,72.00
2018-12-29T17:43:52.011Z,71.95
2018-12-29T17:46:24.123Z,71.95
2018-12-29T17:48:56.283Z,71.71
2018-12-29T17:51:28.314Z,71.73
2018-12-29T17:54:00.319Z,71.84
2018-12-29T17:56:32.861Z,71.56
2018-12-29T17:59:04.947Z,71.22
2018-12-29T18:01:37.107Z,71.15
2018-12-29T18:04:07.864Z,71.40
2018-12-29T18:06:39.942Z,71.16
2018-12-29T18:09:12.134Z,70.85
2018-12-29T18:11:42.706Z,71.14
2018-12-29T18:14:14.901Z,71.46
2018-12-29T18:16:47.882Z,71.65
2018-12-29T18:19:18.691Z,71.90
2018-12-29T18:21:50.896Z,71.96
2018-12-29T18:24:23.126Z,72.35
2018-12-29T18:26:53.850Z,72.58
2018-12-29T18:29:25.941Z,72.56
2018-12-29T18:31:58.420Z,72.87
2018-12-29T18:34:30.727Z,73.39
2018-12-29T18:37:03.081Z,73.39
2018-12-29T18:39:35.331Z,73.11
2018-12-29T18:42:07.628Z,73.47
2018-12-29T18:44:40.130Z,73.47
2018-12-29T18:47:12.322Z,73.29
2018-12-29T18:49:44.320Z,73.87
2018-12-29T18:52:16.356Z,73.77
2018-12-29T18:54:48.322Z,73.79
2018-12-29T18:57:20.300Z,73.79
2018-12-29T18:59:52.328Z,73.73
2018-12-29T19:02:24.655Z,73.63
2018-12-29T19:04:56.888Z,73.63
2018-12-29T19:07:27.857Z,73.94
2018-12-29T19:09:59.931Z,74.09
2018-12-29T19:12:32.266Z,74.08
2018-12-29T19:15:02.688Z,74.24
2018-12-29T19:17:35.144Z,74.37
2018-12-29T19:20:08.332Z,74.21
2018-12-29T19:22:40.310Z,74.03
2018-12-29T19:25:12.307Z,73.94
2018-12-29T19:27:44.316Z,74.04
2018-12-29T19:30:16.624Z,73.95
2018-12-29T19:32:49.227Z,73.58
2018-12-29T19:35:19.784Z,73.65
2018-12-29T19:37:51.940Z,73.62
2018-12-29T19:40:23.945Z,73.23
2018-12-29T19:42:56.276Z,73.24
2018-12-29T19:45:28.309Z,73.43
2018-12-29T19:48:00.938Z,73.42
2018-12-29T19:50:31.695Z,73.30
2018-12-29T19:53:03.944Z,73.30
2018-12-29T19:55:36.128Z,73.49
2018-12-29T19:58:07.003Z,73.27
2018-12-29T20:00:39.287Z,73.46
2018-12-29T20:03:12.346Z,73.64
2018-12-29T20:05:44.784Z,73.59
2018-12-29T20:08:16.938Z,73.65
2018-12-29T20:10:48.986Z,74.39
2018-12-29T20:13:20.939Z,74.90
2018-12-29T20:15:53.253Z,75.25
2018-12-29T20:18:24.075Z,75.65
2018-12-29T20:20:54.841Z,76.02
2018-12-29T20:23:26.940Z,76.86
2018-12-29T20:25:59.271Z,76.86
2018-12-29T20:28:29.990Z,76.69
2018-12-29T20:31:02.319Z,76.69
2018-12-29T20:33:34.283Z,76.71
2018-12-29T20:36:06.656Z,77.08
2018-12-29T20:38:38.890Z,77.09
2018-12-29T20:41:10.931Z,77.17
2018-12-29T20:43:43.267Z,77.56
2018-12-29T20:46:15.265Z,77.81
2018-12-29T20:48:47.299Z,77.99
2018-12-29T20:51:19.352Z,78.29
2018-12-29T20:53:51.935Z,78.36
2018-12-29T20:56:24.266Z,78.39
2018-12-29T20:58:56.312Z,78.85
2018-12-29T21:01:28.644Z,79.15
2018-12-29T21:04:00.943Z,79.06
2018-12-29T21:06:33.274Z,79.50
2018-12-29T21:09:08.647Z,79.25
2018-12-29T21:11:40.931Z,79.53
2018-12-29T21:14:13.243Z,79.29
2018-12-29T21:16:43.986Z,79.29
2018-12-29T21:19:16.274Z,79.22
2018-12-29T21:21:47.039Z,78.86
2018-12-29T21:24:19.284Z,78.76
2018-12-29T21:26:51.723Z,79.06
2018-12-29T21:29:23.954Z,78.72
2018-12-29T21:31:56.296Z,78.33
2018-12-29T21:34:28.345Z,78.37
2018-12-29T21:37:00.626Z,77.31
2018-12-29T21:39:32.943Z,77.31
2018-12-29T21:42:05.113Z,77.20
2018-12-29T21:44:37.278Z,76.66
2018-12-29T21:47:09.276Z,76.53
2018-12-29T21:49:41.308Z,76.48
2018-12-29T21:52:13.297Z,75.72
2018-12-29T21:54:45.335Z,75.72
2018-12-29T21:57:15.867Z,75.77
2018-12-29T21:59:46.852Z,75.73
2018-12-29T22:04:21.675Z,74.78
2018-12-29T22:06:54.249Z,74.39
2018-12-29T22:09:24.857Z,74.39
2018-12-29T22:11:57.120Z,74.26
2018-12-29T22:14:27.841Z,74.24
2018-12-29T22:17:00.100Z,73.98
2018-12-29T22:19:30.859Z,73.81
2018-12-29T22:22:03.081Z,73.81
2018-12-29T22:24:34.025Z,73.50
2018-12-29T22:27:05.111Z,73.31
2018-12-29T22:29:35.852Z,73.31
2018-12-29T22:32:07.941Z,73.12
2018-12-29T22:34:40.096Z,73.19
2018-12-29T22:37:12.268Z,72.90
2018-12-29T22:39:43.286Z,72.90
2018-12-29T22:42:15.271Z,72.82
2018-12-29T22:44:47.621Z,72.47
2018-12-29T22:47:19.934Z,72.47
2018-12-29T22:49:52.267Z,72.83
2018-12-29T22:52:24.642Z,73.22
2018-12-29T22:54:56.695Z,74.01
2018-12-29T22:57:29.261Z,73.89
2018-12-29T23:00:01.734Z,74.47
2018-12-29T23:02:34.269Z,75.03
2018-12-29T23:05:06.662Z,75.21
2018-12-29T23:07:38.935Z,75.16
2018-12-29T23:10:11.099Z,75.66
2018-12-29T23:12:43.270Z,75.32
2018-12-29T23:15:15.668Z,75.72
2018-12-29T23:17:48.140Z,75.43
2018-12-29T23:20:18.696Z,75.53
2018-12-29T23:22:50.934Z,75.45
2018-12-29T23:25:23.255Z,75.34
2018-12-29T23:27:53.902Z,75.87
2018-12-29T23:30:26.267Z,75.65
2018-12-29T23:32:58.419Z,75.65
2018-12-29T23:35:30.768Z,75.70
2018-12-29T23:38:01.657Z,75.70
2018-12-29T23:40:34.103Z,75.99
2018-12-29T23:43:06.261Z,76.52
2018-12-29T23:45:38.779Z,76.78
2018-12-29T23:48:10.935Z,77.15
2018-12-29T23:50:43.207Z,77.68
2018-12-29T23:53:15.274Z,77.67
2018-12-29T23:55:47.690Z,77.67
2018-12-29T23:58:20.091Z,77.97
